Afton, New York
Current Conditions -  °F | °C
As of 9:53 AM on Saturday 25 Oct 2014 (Local Time) from KBGM Reporting Station
Overcast Overcast  
Wind Chill: 42°   Ceiling: 4600
Heat Index: 46°   Visibility: 10mi
Dew Point: 38°   Wind: 7mph
Humidity: 73%   Direction: 250°WSW
Pressure: 29.84"   Gusts: NA
Location:  42.23°N, 75.53°W
Report Text: KBGM 251353Z 25006KT 10SM OVC046 08/03 A2984 RMK AO2 SLP111 T00780033
Loading
Personal Weather Stations






























Interactive Weather Map New forecast layout! Learn more

10-Day Weather Forecast

Advertisements
Track Severe Weather on mobile